sensor_id;sensor_type;location;lat;lon;timestamp;P1;durP1;ratioP1;P2;durP2;ratioP2
69594;SDS011;56800;52.142;5.364;2023-03-20T00:01:17;16.50;;;6.72;;
69594;SDS011;56800;52.142;5.364;2023-03-20T00:03:47;15.90;;;7.40;;
69594;SDS011;56800;52.142;5.364;2023-03-20T00:06:15;14.33;;;6.97;;
69594;SDS011;56800;52.142;5.364;2023-03-20T00:08:43;14.45;;;7.90;;
69594;SDS011;56800;52.142;5.364;2023-03-20T00:11:32;17.42;;;8.18;;
69594;SDS011;56800;52.142;5.364;2023-03-20T00:14:00;16.73;;;7.75;;
69594;SDS011;56800;52.142;5.364;2023-03-20T00:16:32;20.25;;;8.35;;
69594;SDS011;56800;52.142;5.364;2023-03-20T00:19:00;14.03;;;8.30;;
69594;SDS011;56800;52.142;5.364;2023-03-20T00:21:28;21.98;;;10.23;;
69594;SDS011;56800;52.142;5.364;2023-03-20T00:23:55;23.02;;;9.98;;
69594;SDS011;56800;52.142;5.364;2023-03-20T00:26:24;20.77;;;9.90;;
69594;SDS011;56800;52.142;5.364;2023-03-20T00:28:53;20.40;;;9.02;;
69594;SDS011;56800;52.142;5.364;2023-03-20T00:31:24;20.97;;;10.37;;
69594;SDS011;56800;52.142;5.364;2023-03-20T00:33:53;19.67;;;10.45;;
69594;SDS011;56800;52.142;5.364;2023-03-20T00:36:22;24.80;;;10.88;;
69594;SDS011;56800;52.142;5.364;2023-03-20T00:38:49;23.98;;;11.38;;
69594;SDS011;56800;52.142;5.364;2023-03-20T00:43:49;24.57;;;11.47;;
69594;SDS011;56800;52.142;5.364;2023-03-20T00:46:28;25.10;;;11.63;;
69594;SDS011;56800;52.142;5.364;2023-03-20T00:49:00;23.17;;;11.82;;
69594;SDS011;56800;52.142;5.364;2023-03-20T00:51:26;25.38;;;12.05;;
69594;SDS011;56800;52.142;5.364;2023-03-20T00:53:53;26.05;;;12.43;;
69594;SDS011;56800;52.142;5.364;2023-03-20T00:59:01;21.80;;;11.13;;
69594;SDS011;56800;52.142;5.364;2023-03-20T01:01:29;19.90;;;10.90;;
69594;SDS011;56800;52.142;5.364;2023-03-20T01:03:57;19.73;;;10.43;;
69594;SDS011;56800;52.142;5.364;2023-03-20T01:06:24;19.70;;;9.07;;
69594;SDS011;56800;52.142;5.364;2023-03-20T01:08:51;16.03;;;8.97;;
69594;SDS011;56800;52.142;5.364;2023-03-20T01:11:19;15.93;;;9.43;;
69594;SDS011;56800;52.142;5.364;2023-03-20T01:13:48;16.05;;;8.20;;
69594;SDS011;56800;52.142;5.364;2023-03-20T01:16:21;17.25;;;8.32;;
69594;SDS011;56800;52.142;5.364;2023-03-20T01:18:50;16.83;;;9.27;;
69594;SDS011;56800;52.142;5.364;2023-03-20T01:21:17;13.57;;;8.50;;
69594;SDS011;56800;52.142;5.364;2023-03-20T01:23:45;17.08;;;8.20;;
69594;SDS011;56800;52.142;5.364;2023-03-20T01:26:20;17.60;;;8.32;;
69594;SDS011;56800;52.142;5.364;2023-03-20T01:28:49;17.60;;;8.57;;
69594;SDS011;56800;52.142;5.364;2023-03-20T01:31:16;15.77;;;8.60;;
69594;SDS011;56800;52.142;5.364;2023-03-20T01:33:44;15.87;;;8.20;;
69594;SDS011;56800;52.142;5.364;2023-03-20T01:36:12;20.92;;;8.30;;
69594;SDS011;56800;52.142;5.364;2023-03-20T01:38:41;14.95;;;7.95;;
69594;SDS011;56800;52.142;5.364;2023-03-20T01:41:12;12.93;;;7.10;;
69594;SDS011;56800;52.142;5.364;2023-03-20T01:43:41;14.43;;;6.68;;
69594;SDS011;56800;52.142;5.364;2023-03-20T01:46:13;16.73;;;7.70;;
69594;SDS011;56800;52.142;5.364;2023-03-20T01:51:35;17.05;;;6.75;;
69594;SDS011;56800;52.142;5.364;2023-03-20T01:54:13;14.77;;;6.28;;
69594;SDS011;56800;52.142;5.364;2023-03-20T01:56:57;12.68;;;6.18;;
69594;SDS011;56800;52.142;5.364;2023-03-20T01:59:28;17.33;;;6.13;;
69594;SDS011;56800;52.142;5.364;2023-03-20T02:01:59;11.70;;;5.85;;
69594;SDS011;56800;52.142;5.364;2023-03-20T02:04:28;11.52;;;6.18;;
69594;SDS011;56800;52.142;5.364;2023-03-20T02:06:58;14.23;;;6.53;;
69594;SDS011;56800;52.142;5.364;2023-03-20T02:09:25;14.90;;;5.90;;
69594;SDS011;56800;52.142;5.364;2023-03-20T02:11:52;15.20;;;6.00;;
69594;SDS011;56800;52.142;5.364;2023-03-20T02:14:21;14.60;;;5.63;;
69594;SDS011;56800;52.142;5.364;2023-03-20T02:16:48;14.40;;;5.43;;
69594;SDS011;56800;52.142;5.364;2023-03-20T02:19:17;10.00;;;5.22;;
69594;SDS011;56800;52.142;5.364;2023-03-20T02:24:53;13.20;;;5.33;;
69594;SDS011;56800;52.142;5.364;2023-03-20T02:30:59;11.57;;;4.97;;
69594;SDS011;56800;52.142;5.364;2023-03-20T02:42:23;14.02;;;4.93;;
69594;SDS011;56800;52.142;5.364;2023-03-20T02:47:55;13.65;;;5.80;;
69594;SDS011;56800;52.142;5.364;2023-03-20T02:50:46;14.93;;;6.18;;
69594;SDS011;56800;52.142;5.364;2023-03-20T02:58:55;16.88;;;7.80;;
69594;SDS011;56800;52.142;5.364;2023-03-20T03:01:28;19.40;;;8.10;;
69594;SDS011;56800;52.142;5.364;2023-03-20T03:04:15;17.88;;;8.52;;
69594;SDS011;56800;52.142;5.364;2023-03-20T03:06:47;21.03;;;8.30;;
69594;SDS011;56800;52.142;5.364;2023-03-20T03:09:29;16.63;;;8.07;;
69594;SDS011;56800;52.142;5.364;2023-03-20T03:12:09;20.63;;;9.40;;
69594;SDS011;56800;52.142;5.364;2023-03-20T03:14:41;18.38;;;8.60;;
69594;SDS011;56800;52.142;5.364;2023-03-20T03:17:14;19.02;;;8.88;;
69594;SDS011;56800;52.142;5.364;2023-03-20T03:19:45;18.47;;;8.17;;
69594;SDS011;56800;52.142;5.364;2023-03-20T03:22:14;17.92;;;8.90;;
69594;SDS011;56800;52.142;5.364;2023-03-20T03:24:43;19.35;;;9.27;;
69594;SDS011;56800;52.142;5.364;2023-03-20T03:27:58;17.98;;;9.50;;
69594;SDS011;56800;52.142;5.364;2023-03-20T03:35:50;26.90;;;11.30;;
69594;SDS011;56800;52.142;5.364;2023-03-20T03:38:36;25.73;;;11.55;;
69594;SDS011;56800;52.142;5.364;2023-03-20T03:41:14;25.08;;;10.80;;
69594;SDS011;56800;52.142;5.364;2023-03-20T03:46:40;27.33;;;11.80;;
69594;SDS011;56800;52.142;5.364;2023-03-20T03:49:23;29.73;;;12.15;;
69594;SDS011;56800;52.142;5.364;2023-03-20T03:51:54;24.70;;;11.68;;
69594;SDS011;56800;52.142;5.364;2023-03-20T03:54:27;27.95;;;12.00;;
69594;SDS011;56800;52.142;5.364;2023-03-20T03:57:20;31.52;;;12.77;;
69594;SDS011;56800;52.142;5.364;2023-03-20T03:59:49;26.70;;;12.20;;
69594;SDS011;56800;52.142;5.364;2023-03-20T04:02:17;26.30;;;11.68;;
69594;SDS011;56800;52.142;5.364;2023-03-20T04:04:47;24.40;;;12.27;;
69594;SDS011;56800;52.142;5.364;2023-03-20T04:07:16;26.00;;;11.65;;
69594;SDS011;56800;52.142;5.364;2023-03-20T04:09:43;27.42;;;12.18;;
69594;SDS011;56800;52.142;5.364;2023-03-20T04:12:17;28.80;;;11.70;;
69594;SDS011;56800;52.142;5.364;2023-03-20T04:14:59;27.20;;;12.57;;
69594;SDS011;56800;52.142;5.364;2023-03-20T04:17:28;31.70;;;12.60;;
69594;SDS011;56800;52.142;5.364;2023-03-20T04:19:55;26.38;;;12.88;;
69594;SDS011;56800;52.142;5.364;2023-03-20T04:22:22;34.90;;;13.82;;
69594;SDS011;56800;52.142;5.364;2023-03-20T04:24:49;26.50;;;12.47;;
69594;SDS011;56800;52.142;5.364;2023-03-20T04:27:16;29.13;;;12.45;;
69594;SDS011;56800;52.142;5.364;2023-03-20T04:29:43;25.30;;;12.18;;
69594;SDS011;56800;52.142;5.364;2023-03-20T04:32:10;28.30;;;12.07;;
69594;SDS011;56800;52.142;5.364;2023-03-20T04:34:37;24.17;;;11.68;;
69594;SDS011;56800;52.142;5.364;2023-03-20T04:37:04;28.27;;;13.00;;
69594;SDS011;56800;52.142;5.364;2023-03-20T04:39:33;25.75;;;11.45;;
69594;SDS011;56800;52.142;5.364;2023-03-20T04:42:02;26.65;;;12.57;;
69594;SDS011;56800;52.142;5.364;2023-03-20T04:44:29;25.85;;;12.13;;
69594;SDS011;56800;52.142;5.364;2023-03-20T04:46:56;27.77;;;13.63;;
69594;SDS011;56800;52.142;5.364;2023-03-20T04:49:23;22.30;;;12.37;;
69594;SDS011;56800;52.142;5.364;2023-03-20T04:51:49;24.80;;;12.10;;
69594;SDS011;56800;52.142;5.364;2023-03-20T04:54:16;27.20;;;12.35;;
69594;SDS011;56800;52.142;5.364;2023-03-20T04:56:43;24.70;;;12.02;;
69594;SDS011;56800;52.142;5.364;2023-03-20T04:59:10;24.80;;;12.60;;
69594;SDS011;56800;52.142;5.364;2023-03-20T05:01:36;25.80;;;12.93;;
69594;SDS011;56800;52.142;5.364;2023-03-20T05:04:03;29.52;;;12.70;;
69594;SDS011;56800;52.142;5.364;2023-03-20T05:06:30;28.35;;;13.38;;
69594;SDS011;56800;52.142;5.364;2023-03-20T05:08:58;23.98;;;13.43;;
69594;SDS011;56800;52.142;5.364;2023-03-20T05:11:26;25.33;;;12.52;;
69594;SDS011;56800;52.142;5.364;2023-03-20T05:13:53;25.27;;;12.67;;
69594;SDS011;56800;52.142;5.364;2023-03-20T05:16:20;29.50;;;13.98;;
69594;SDS011;56800;52.142;5.364;2023-03-20T05:18:47;24.40;;;13.18;;
69594;SDS011;56800;52.142;5.364;2023-03-20T05:21:14;26.45;;;13.70;;
69594;SDS011;56800;52.142;5.364;2023-03-20T05:23:41;28.52;;;13.65;;
69594;SDS011;56800;52.142;5.364;2023-03-20T05:26:07;29.00;;;13.83;;
69594;SDS011;56800;52.142;5.364;2023-03-20T05:28:34;25.70;;;13.52;;
69594;SDS011;56800;52.142;5.364;2023-03-20T05:31:01;29.63;;;13.57;;
69594;SDS011;56800;52.142;5.364;2023-03-20T05:33:28;27.38;;;13.63;;
69594;SDS011;56800;52.142;5.364;2023-03-20T05:35:55;23.73;;;13.07;;
69594;SDS011;56800;52.142;5.364;2023-03-20T05:38:21;26.67;;;12.80;;
69594;SDS011;56800;52.142;5.364;2023-03-20T05:40:48;23.70;;;13.77;;
69594;SDS011;56800;52.142;5.364;2023-03-20T05:43:15;29.55;;;14.13;;
69594;SDS011;56800;52.142;5.364;2023-03-20T05:45:42;29.38;;;13.73;;
69594;SDS011;56800;52.142;5.364;2023-03-20T05:48:08;27.50;;;13.02;;
69594;SDS011;56800;52.142;5.364;2023-03-20T05:50:35;28.20;;;12.57;;
69594;SDS011;56800;52.142;5.364;2023-03-20T05:53:02;28.42;;;13.48;;
69594;SDS011;56800;52.142;5.364;2023-03-20T05:55:29;20.60;;;12.75;;
69594;SDS011;56800;52.142;5.364;2023-03-20T05:57:56;28.45;;;13.73;;
69594;SDS011;56800;52.142;5.364;2023-03-20T06:00:22;26.55;;;13.38;;
69594;SDS011;56800;52.142;5.364;2023-03-20T06:02:49;27.93;;;13.33;;
69594;SDS011;56800;52.142;5.364;2023-03-20T06:05:16;23.15;;;12.35;;
69594;SDS011;56800;52.142;5.364;2023-03-20T06:07:42;29.05;;;12.80;;
69594;SDS011;56800;52.142;5.364;2023-03-20T06:10:09;24.50;;;11.68;;
69594;SDS011;56800;52.142;5.364;2023-03-20T06:12:36;27.98;;;13.32;;
69594;SDS011;56800;52.142;5.364;2023-03-20T06:15:04;24.07;;;12.27;;
69594;SDS011;56800;52.142;5.364;2023-03-20T06:17:31;24.65;;;12.50;;
69594;SDS011;56800;52.142;5.364;2023-03-20T06:19:58;27.80;;;12.43;;
69594;SDS011;56800;52.142;5.364;2023-03-20T06:22:24;21.55;;;12.00;;
69594;SDS011;56800;52.142;5.364;2023-03-20T06:24:51;28.58;;;13.25;;
69594;SDS011;56800;52.142;5.364;2023-03-20T06:27:20;26.07;;;12.67;;
69594;SDS011;56800;52.142;5.364;2023-03-20T06:29:47;23.23;;;12.10;;
69594;SDS011;56800;52.142;5.364;2023-03-20T06:32:13;20.60;;;11.95;;
69594;SDS011;56800;52.142;5.364;2023-03-20T06:34:42;22.52;;;12.15;;
69594;SDS011;56800;52.142;5.364;2023-03-20T06:37:09;19.75;;;12.00;;
69594;SDS011;56800;52.142;5.364;2023-03-20T06:39:35;19.47;;;12.00;;
69594;SDS011;56800;52.142;5.364;2023-03-20T06:42:02;26.83;;;12.25;;
69594;SDS011;56800;52.142;5.364;2023-03-20T06:44:29;21.95;;;11.00;;
69594;SDS011;56800;52.142;5.364;2023-03-20T06:46:56;22.70;;;11.98;;
69594;SDS011;56800;52.142;5.364;2023-03-20T06:49:22;24.10;;;11.68;;
69594;SDS011;56800;52.142;5.364;2023-03-20T06:51:49;25.43;;;11.23;;
69594;SDS011;56800;52.142;5.364;2023-03-20T06:54:16;31.33;;;11.70;;
69594;SDS011;56800;52.142;5.364;2023-03-20T06:56:42;21.58;;;11.30;;
69594;SDS011;56800;52.142;5.364;2023-03-20T06:59:09;30.65;;;11.63;;
69594;SDS011;56800;52.142;5.364;2023-03-20T07:01:36;22.27;;;11.25;;
69594;SDS011;56800;52.142;5.364;2023-03-20T07:04:02;24.00;;;11.10;;
69594;SDS011;56800;52.142;5.364;2023-03-20T07:06:29;25.88;;;11.93;;
69594;SDS011;56800;52.142;5.364;2023-03-20T07:08:56;21.08;;;10.80;;
69594;SDS011;56800;52.142;5.364;2023-03-20T07:11:23;23.02;;;10.40;;
69594;SDS011;56800;52.142;5.364;2023-03-20T07:13:49;26.35;;;11.10;;
69594;SDS011;56800;52.142;5.364;2023-03-20T07:16:16;26.60;;;10.73;;
69594;SDS011;56800;52.142;5.364;2023-03-20T07:18:43;27.70;;;11.07;;
69594;SDS011;56800;52.142;5.364;2023-03-20T07:21:09;22.40;;;10.63;;
69594;SDS011;56800;52.142;5.364;2023-03-20T07:23:46;23.35;;;10.60;;
69594;SDS011;56800;52.142;5.364;2023-03-20T07:26:12;22.45;;;10.18;;
69594;SDS011;56800;52.142;5.364;2023-03-20T07:28:39;18.47;;;9.87;;
69594;SDS011;56800;52.142;5.364;2023-03-20T07:31:06;21.05;;;9.75;;
69594;SDS011;56800;52.142;5.364;2023-03-20T07:33:35;24.88;;;10.52;;
69594;SDS011;56800;52.142;5.364;2023-03-20T07:36:02;25.17;;;10.65;;
69594;SDS011;56800;52.142;5.364;2023-03-20T07:38:28;20.60;;;9.90;;
69594;SDS011;56800;52.142;5.364;2023-03-20T07:40:55;23.27;;;10.37;;
69594;SDS011;56800;52.142;5.364;2023-03-20T07:43:22;18.15;;;9.68;;
69594;SDS011;56800;52.142;5.364;2023-03-20T07:45:48;19.55;;;9.93;;
69594;SDS011;56800;52.142;5.364;2023-03-20T07:48:15;22.80;;;9.80;;
69594;SDS011;56800;52.142;5.364;2023-03-20T07:50:42;25.58;;;9.57;;
69594;SDS011;56800;52.142;5.364;2023-03-20T07:53:09;21.67;;;9.30;;
69594;SDS011;56800;52.142;5.364;2023-03-20T07:55:35;27.33;;;9.85;;
69594;SDS011;56800;52.142;5.364;2023-03-20T07:58:03;22.13;;;8.88;;
69594;SDS011;56800;52.142;5.364;2023-03-20T08:00:29;24.58;;;9.43;;
69594;SDS011;56800;52.142;5.364;2023-03-20T08:02:56;22.08;;;9.15;;
69594;SDS011;56800;52.142;5.364;2023-03-20T08:05:23;17.23;;;8.47;;
69594;SDS011;56800;52.142;5.364;2023-03-20T08:07:51;19.85;;;9.13;;
69594;SDS011;56800;52.142;5.364;2023-03-20T08:10:18;18.08;;;8.82;;
69594;SDS011;56800;52.142;5.364;2023-03-20T08:12:44;20.63;;;8.63;;
69594;SDS011;56800;52.142;5.364;2023-03-20T08:15:11;20.58;;;8.20;;
69594;SDS011;56800;52.142;5.364;2023-03-20T08:17:42;18.23;;;8.47;;
69594;SDS011;56800;52.142;5.364;2023-03-20T08:20:10;19.20;;;7.68;;
69594;SDS011;56800;52.142;5.364;2023-03-20T08:22:38;19.52;;;8.15;;
69594;SDS011;56800;52.142;5.364;2023-03-20T08:25:05;21.15;;;8.05;;
69594;SDS011;56800;52.142;5.364;2023-03-20T08:27:34;19.15;;;6.60;;
69594;SDS011;56800;52.142;5.364;2023-03-20T08:30:02;17.50;;;7.27;;
69594;SDS011;56800;52.142;5.364;2023-03-20T08:32:30;17.67;;;7.22;;
69594;SDS011;56800;52.142;5.364;2023-03-20T08:34:57;19.85;;;7.70;;
69594;SDS011;56800;52.142;5.364;2023-03-20T08:37:23;20.90;;;7.70;;
69594;SDS011;56800;52.142;5.364;2023-03-20T08:39:50;12.60;;;7.25;;
69594;SDS011;56800;52.142;5.364;2023-03-20T08:42:16;21.93;;;7.37;;
69594;SDS011;56800;52.142;5.364;2023-03-20T08:44:43;16.65;;;7.32;;
69594;SDS011;56800;52.142;5.364;2023-03-20T08:47:10;15.43;;;6.75;;
69594;SDS011;56800;52.142;5.364;2023-03-20T08:49:37;16.85;;;6.35;;
69594;SDS011;56800;52.142;5.364;2023-03-20T08:52:04;12.63;;;6.70;;
69594;SDS011;56800;52.142;5.364;2023-03-20T08:54:31;17.00;;;6.20;;
69594;SDS011;56800;52.142;5.364;2023-03-20T08:56:58;17.48;;;7.25;;
69594;SDS011;56800;52.142;5.364;2023-03-20T08:59:25;14.43;;;6.60;;
69594;SDS011;56800;52.142;5.364;2023-03-20T09:01:52;18.15;;;6.82;;
69594;SDS011;56800;52.142;5.364;2023-03-20T09:04:19;17.83;;;6.30;;
69594;SDS011;56800;52.142;5.364;2023-03-20T09:06:46;18.07;;;6.60;;
69594;SDS011;56800;52.142;5.364;2023-03-20T09:09:13;18.48;;;6.55;;
69594;SDS011;56800;52.142;5.364;2023-03-20T09:11:41;20.02;;;6.85;;
69594;SDS011;56800;52.142;5.364;2023-03-20T09:14:07;20.77;;;6.88;;
69594;SDS011;56800;52.142;5.364;2023-03-20T09:16:34;18.15;;;7.25;;
69594;SDS011;56800;52.142;5.364;2023-03-20T09:19:01;16.63;;;6.13;;
69594;SDS011;56800;52.142;5.364;2023-03-20T09:21:28;21.98;;;6.40;;
69594;SDS011;56800;52.142;5.364;2023-03-20T09:23:55;23.17;;;6.15;;
69594;SDS011;56800;52.142;5.364;2023-03-20T09:26:22;17.30;;;6.80;;
69594;SDS011;56800;52.142;5.364;2023-03-20T09:28:48;17.40;;;6.25;;
69594;SDS011;56800;52.142;5.364;2023-03-20T09:31:15;11.97;;;5.23;;
69594;SDS011;56800;52.142;5.364;2023-03-20T09:33:42;16.58;;;6.40;;
69594;SDS011;56800;52.142;5.364;2023-03-20T09:36:08;20.65;;;6.72;;
69594;SDS011;56800;52.142;5.364;2023-03-20T09:38:36;14.88;;;5.95;;
69594;SDS011;56800;52.142;5.364;2023-03-20T09:41:03;18.15;;;6.50;;
69594;SDS011;56800;52.142;5.364;2023-03-20T09:49:17;17.17;;;6.00;;
69594;SDS011;56800;52.142;5.364;2023-03-20T09:54:50;14.45;;;5.88;;
69594;SDS011;56800;52.142;5.364;2023-03-20T09:57:26;18.73;;;6.00;;
69594;SDS011;56800;52.142;5.364;2023-03-20T09:59:58;17.63;;;5.80;;
69594;SDS011;56800;52.142;5.364;2023-03-20T10:05:18;14.98;;;5.55;;
69594;SDS011;56800;52.142;5.364;2023-03-20T10:07:49;17.60;;;4.90;;
69594;SDS011;56800;52.142;5.364;2023-03-20T10:10:16;17.53;;;5.67;;
69594;SDS011;56800;52.142;5.364;2023-03-20T10:12:47;17.35;;;5.50;;
69594;SDS011;56800;52.142;5.364;2023-03-20T10:18:06;14.23;;;5.35;;
69594;SDS011;56800;52.142;5.364;2023-03-20T10:20:47;15.85;;;5.60;;
69594;SDS011;56800;52.142;5.364;2023-03-20T10:26:19;12.52;;;4.80;;
69594;SDS011;56800;52.142;5.364;2023-03-20T10:28:58;12.50;;;4.45;;
69594;SDS011;56800;52.142;5.364;2023-03-20T10:42:38;15.02;;;4.97;;
69594;SDS011;56800;52.142;5.364;2023-03-20T10:47:58;14.20;;;4.43;;
69594;SDS011;56800;52.142;5.364;2023-03-20T10:50:28;15.17;;;6.03;;
69594;SDS011;56800;52.142;5.364;2023-03-20T10:52:59;15.98;;;5.32;;
69594;SDS011;56800;52.142;5.364;2023-03-20T10:55:29;15.25;;;5.00;;
69594;SDS011;56800;52.142;5.364;2023-03-20T10:58:43;12.43;;;5.18;;
69594;SDS011;56800;52.142;5.364;2023-03-20T11:00:52;12.18;;;4.75;;
69594;SDS011;56800;52.142;5.364;2023-03-20T11:03:25;15.27;;;5.27;;
69594;SDS011;56800;52.142;5.364;2023-03-20T11:06:00;14.15;;;5.50;;
69594;SDS011;56800;52.142;5.364;2023-03-20T11:08:36;22.17;;;6.30;;
69594;SDS011;56800;52.142;5.364;2023-03-20T11:11:06;18.02;;;6.25;;
69594;SDS011;56800;52.142;5.364;2023-03-20T11:13:35;20.00;;;6.50;;
69594;SDS011;56800;52.142;5.364;2023-03-20T11:18:47;19.13;;;7.38;;
69594;SDS011;56800;52.142;5.364;2023-03-20T11:21:19;18.63;;;8.18;;
69594;SDS011;56800;52.142;5.364;2023-03-20T11:23:51;17.27;;;7.85;;
69594;SDS011;56800;52.142;5.364;2023-03-20T11:26:40;21.15;;;8.05;;
69594;SDS011;56800;52.142;5.364;2023-03-20T11:29:09;20.50;;;8.17;;
69594;SDS011;56800;52.142;5.364;2023-03-20T11:31:45;24.73;;;9.25;;
69594;SDS011;56800;52.142;5.364;2023-03-20T11:39:35;19.73;;;8.95;;
69594;SDS011;56800;52.142;5.364;2023-03-20T11:42:03;23.87;;;9.80;;
69594;SDS011;56800;52.142;5.364;2023-03-20T11:44:46;24.25;;;10.02;;
69594;SDS011;56800;52.142;5.364;2023-03-20T11:47:24;22.02;;;8.93;;
69594;SDS011;56800;52.142;5.364;2023-03-20T11:49:56;23.77;;;9.95;;
69594;SDS011;56800;52.142;5.364;2023-03-20T11:52:25;25.02;;;10.32;;
69594;SDS011;56800;52.142;5.364;2023-03-20T11:54:56;24.77;;;10.77;;
69594;SDS011;56800;52.142;5.364;2023-03-20T11:57:32;23.58;;;10.55;;
69594;SDS011;56800;52.142;5.364;2023-03-20T12:02:36;20.80;;;9.73;;
69594;SDS011;56800;52.142;5.364;2023-03-20T12:05:51;26.67;;;10.50;;
69594;SDS011;56800;52.142;5.364;2023-03-20T12:08:22;22.47;;;10.83;;
69594;SDS011;56800;52.142;5.364;2023-03-20T12:10:50;25.65;;;10.48;;
69594;SDS011;56800;52.142;5.364;2023-03-20T12:13:21;28.52;;;10.50;;
69594;SDS011;56800;52.142;5.364;2023-03-20T12:15:54;27.58;;;11.48;;
69594;SDS011;56800;52.142;5.364;2023-03-20T12:18:42;24.52;;;10.73;;
69594;SDS011;56800;52.142;5.364;2023-03-20T12:21:14;23.20;;;11.47;;
69594;SDS011;56800;52.142;5.364;2023-03-20T12:23:50;25.00;;;11.80;;
69594;SDS011;56800;52.142;5.364;2023-03-20T12:26:34;23.50;;;12.10;;
69594;SDS011;56800;52.142;5.364;2023-03-20T12:29:35;23.70;;;10.38;;
69594;SDS011;56800;52.142;5.364;2023-03-20T12:35:22;23.63;;;11.47;;
69594;SDS011;56800;52.142;5.364;2023-03-20T12:37:41;19.75;;;10.90;;
69594;SDS011;56800;52.142;5.364;2023-03-20T12:40:11;31.38;;;13.05;;
69594;SDS011;56800;52.142;5.364;2023-03-20T12:42:52;23.88;;;12.07;;
69594;SDS011;56800;52.142;5.364;2023-03-20T12:45:38;27.27;;;14.05;;
69594;SDS011;56800;52.142;5.364;2023-03-20T12:53:45;23.00;;;11.63;;
69594;SDS011;56800;52.142;5.364;2023-03-20T12:56:44;24.42;;;12.80;;
69594;SDS011;56800;52.142;5.364;2023-03-20T13:07:18;29.38;;;14.20;;
69594;SDS011;56800;52.142;5.364;2023-03-20T13:20:40;25.73;;;13.05;;
69594;SDS011;56800;52.142;5.364;2023-03-20T13:28:54;23.33;;;11.80;;
69594;SDS011;56800;52.142;5.364;2023-03-20T13:34:31;26.10;;;11.40;;
69594;SDS011;56800;52.142;5.364;2023-03-20T13:37:17;30.48;;;13.02;;
69594;SDS011;56800;52.142;5.364;2023-03-20T13:42:56;26.23;;;13.30;;
69594;SDS011;56800;52.142;5.364;2023-03-20T13:45:24;22.67;;;12.32;;
69594;SDS011;56800;52.142;5.364;2023-03-20T13:47:59;21.92;;;12.23;;
69594;SDS011;56800;52.142;5.364;2023-03-20T13:50:56;25.75;;;11.98;;
69594;SDS011;56800;52.142;5.364;2023-03-20T13:59:09;27.35;;;12.23;;
69594;SDS011;56800;52.142;5.364;2023-03-20T14:04:50;25.85;;;12.25;;
69594;SDS011;56800;52.142;5.364;2023-03-20T14:07:35;26.27;;;11.55;;
69594;SDS011;56800;52.142;5.364;2023-03-20T14:15:19;27.00;;;12.60;;
69594;SDS011;56800;52.142;5.364;2023-03-20T14:17:47;27.48;;;11.98;;
69594;SDS011;56800;52.142;5.364;2023-03-20T14:20:32;25.23;;;11.68;;
69594;SDS011;56800;52.142;5.364;2023-03-20T14:23:04;21.63;;;11.70;;
69594;SDS011;56800;52.142;5.364;2023-03-20T14:25:33;20.80;;;11.20;;
69594;SDS011;56800;52.142;5.364;2023-03-20T14:30:40;25.48;;;11.88;;
69594;SDS011;56800;52.142;5.364;2023-03-20T14:35:42;27.00;;;11.87;;
69594;SDS011;56800;52.142;5.364;2023-03-20T14:46:07;21.17;;;12.90;;
69594;SDS011;56800;52.142;5.364;2023-03-20T14:48:52;25.43;;;12.30;;
69594;SDS011;56800;52.142;5.364;2023-03-20T14:51:23;26.55;;;13.68;;
69594;SDS011;56800;52.142;5.364;2023-03-20T14:54:22;21.17;;;11.95;;
69594;SDS011;56800;52.142;5.364;2023-03-20T14:56:51;22.83;;;13.07;;
69594;SDS011;56800;52.142;5.364;2023-03-20T14:59:19;30.92;;;13.63;;
69594;SDS011;56800;52.142;5.364;2023-03-20T15:01:53;23.30;;;12.73;;
69594;SDS011;56800;52.142;5.364;2023-03-20T15:06:54;25.25;;;13.30;;
69594;SDS011;56800;52.142;5.364;2023-03-20T15:09:22;22.95;;;12.45;;
69594;SDS011;56800;52.142;5.364;2023-03-20T15:11:50;26.50;;;13.32;;
69594;SDS011;56800;52.142;5.364;2023-03-20T15:14:20;20.00;;;12.10;;
69594;SDS011;56800;52.142;5.364;2023-03-20T15:16:55;25.67;;;13.40;;
69594;SDS011;56800;52.142;5.364;2023-03-20T15:19:23;22.55;;;12.98;;
69594;SDS011;56800;52.142;5.364;2023-03-20T15:21:51;24.30;;;14.23;;
69594;SDS011;56800;52.142;5.364;2023-03-20T15:24:22;25.45;;;14.43;;
69594;SDS011;56800;52.142;5.364;2023-03-20T15:26:53;21.80;;;12.20;;
69594;SDS011;56800;52.142;5.364;2023-03-20T15:29:23;21.50;;;13.32;;
69594;SDS011;56800;52.142;5.364;2023-03-20T15:31:50;20.38;;;13.13;;
69594;SDS011;56800;52.142;5.364;2023-03-20T15:34:39;17.83;;;12.63;;
69594;SDS011;56800;52.142;5.364;2023-03-20T15:37:11;20.02;;;12.60;;
69594;SDS011;56800;52.142;5.364;2023-03-20T15:39:42;22.40;;;12.83;;
69594;SDS011;56800;52.142;5.364;2023-03-20T15:42:14;18.17;;;12.40;;
69594;SDS011;56800;52.142;5.364;2023-03-20T15:44:43;18.05;;;12.50;;
69594;SDS011;56800;52.142;5.364;2023-03-20T15:47:14;19.73;;;12.50;;
69594;SDS011;56800;52.142;5.364;2023-03-20T15:49:53;18.50;;;12.60;;
69594;SDS011;56800;52.142;5.364;2023-03-20T15:55:02;17.63;;;12.10;;
69594;SDS011;56800;52.142;5.364;2023-03-20T15:57:35;20.35;;;12.63;;
69594;SDS011;56800;52.142;5.364;2023-03-20T16:00:08;19.50;;;13.02;;
69594;SDS011;56800;52.142;5.364;2023-03-20T16:02:44;21.38;;;13.43;;
69594;SDS011;56800;52.142;5.364;2023-03-20T16:05:14;23.00;;;12.80;;
69594;SDS011;56800;52.142;5.364;2023-03-20T16:07:41;20.38;;;12.98;;
69594;SDS011;56800;52.142;5.364;2023-03-20T16:10:16;21.08;;;12.65;;
69594;SDS011;56800;52.142;5.364;2023-03-20T16:12:50;31.52;;;15.45;;
69594;SDS011;56800;52.142;5.364;2023-03-20T16:15:21;26.33;;;15.00;;
69594;SDS011;56800;52.142;5.364;2023-03-20T16:17:51;27.17;;;14.63;;
69594;SDS011;56800;52.142;5.364;2023-03-20T16:20:21;24.20;;;14.75;;
69594;SDS011;56800;52.142;5.364;2023-03-20T16:22:49;31.00;;;16.02;;
69594;SDS011;56800;52.142;5.364;2023-03-20T16:25:18;30.40;;;15.32;;
69594;SDS011;56800;52.142;5.364;2023-03-20T16:27:47;26.95;;;15.38;;
69594;SDS011;56800;52.142;5.364;2023-03-20T16:30:22;26.60;;;14.57;;
69594;SDS011;56800;52.142;5.364;2023-03-20T16:32:59;26.20;;;15.77;;
69594;SDS011;56800;52.142;5.364;2023-03-20T16:35:39;31.45;;;15.57;;
69594;SDS011;56800;52.142;5.364;2023-03-20T16:38:30;25.05;;;16.02;;
69594;SDS011;56800;52.142;5.364;2023-03-20T16:43:48;27.43;;;16.00;;
69594;SDS011;56800;52.142;5.364;2023-03-20T16:46:19;21.42;;;14.90;;
69594;SDS011;56800;52.142;5.364;2023-03-20T16:48:51;30.73;;;16.15;;
69594;SDS011;56800;52.142;5.364;2023-03-20T16:53:58;28.25;;;16.70;;
69594;SDS011;56800;52.142;5.364;2023-03-20T16:58:55;31.20;;;15.90;;
69594;SDS011;56800;52.142;5.364;2023-03-20T17:01:23;29.83;;;15.23;;
69594;SDS011;56800;52.142;5.364;2023-03-20T17:03:53;32.08;;;15.10;;
69594;SDS011;56800;52.142;5.364;2023-03-20T17:08:55;29.93;;;15.77;;
69594;SDS011;56800;52.142;5.364;2023-03-20T17:11:30;30.23;;;16.73;;
69594;SDS011;56800;52.142;5.364;2023-03-20T17:13:59;31.02;;;16.17;;
69594;SDS011;56800;52.142;5.364;2023-03-20T17:16:25;35.28;;;16.50;;
69594;SDS011;56800;52.142;5.364;2023-03-20T17:18:59;33.53;;;17.02;;
69594;SDS011;56800;52.142;5.364;2023-03-20T17:21:27;29.93;;;16.13;;
69594;SDS011;56800;52.142;5.364;2023-03-20T17:23:54;30.30;;;16.15;;
69594;SDS011;56800;52.142;5.364;2023-03-20T17:26:21;28.58;;;15.50;;
69594;SDS011;56800;52.142;5.364;2023-03-20T17:28:48;45.17;;;16.80;;
69594;SDS011;56800;52.142;5.364;2023-03-20T17:31:16;29.65;;;16.73;;